Bodega Marine Reserve, California Weather observations

Data are for 10 minute period ending at time listed.
 Day   Time   Solar   Ave.   Ave.  Ave.  Vector  Max.   Baro.   Total    
  of    of     Rad.   Air    Rel.  Wind   Wind   Wind  Press.  Precip.   
Year   Day            Temp.  Hum.  Speed  Dir.   Gust                    
2015   (PST)  Kw/m2    F      %     mph   deg.    mph    mb.     in.     
-------------------------------------------------------------------------
  62   12:10   0.69   56.6    73    8.3   262    11.0   1015.2    0.00 
  62   12:20   0.69   56.4    73    8.4   269    11.1   1015.2    0.00 
  62   12:30   0.69   56.7    72    8.3   280    10.7   1015.2    0.00 
  62   12:40   0.69   56.5    72    8.6   277    10.6   1014.9    0.00 
  62   12:50   0.69   56.9    72    8.9   281    11.2   1014.9    0.00 
  62   13:00   0.69   56.4    72    9.1   282    11.0   1014.9    0.00 
  62   13:10   0.68   56.8    73    8.7   279    11.8   1014.9    0.00 
  62   13:20   0.66   56.9    73    9.1   287    12.7   1014.6    0.00 
  62   13:30   0.66   56.6    74    9.7   284    13.7   1014.6    0.00 
  62   13:40   0.65   56.2    74    9.6   284    12.1   1014.6    0.00 
  62   13:50   0.64   56.4    74    8.6   286    12.6   1014.2    0.00 
  62   14:00   0.63   56.3    73    8.9   291    13.3   1014.2    0.00 
  62   14:10   0.61   56.6    73    7.7   286    11.3   1014.2    0.00 
  62   14:20   0.60   56.0    75    8.2   282    11.4   1014.2    0.00 
  62   14:30   0.55   56.2    74    8.4   283    11.2   1014.2    0.00 
  62   14:40   0.48   55.9    74    7.6   300    11.0   1013.9    0.00 
  62   14:50   0.40   54.9    76    7.5   301    10.3   1013.9    0.00 
  62   15:00   0.51   56.0    74    8.7   279    11.2   1013.5    0.00 
  62   15:10   0.37   55.3    76    8.1   282    10.9   1013.5    0.00 
  62   15:20   0.40   55.8    75    6.8   291    10.7   1013.5    0.00 
  62   15:30   0.38   55.6    75    7.1   303     9.9   1013.5    0.00 
  62   15:40   0.24   55.2    75    8.0   290    11.6   1013.5    0.00 
  62   15:50   0.32   54.4    77    8.6   293    11.8   1013.2    0.00 
  62   16:00   0.25   54.5    75    9.4   290    13.2   1013.2    0.00 
  62   16:10   0.25   54.6    75    9.0   298    12.6   1013.2    0.00 
  62   16:20   0.30   54.6    75   10.5   302    13.5   1013.2    0.00 
  62   16:30   0.20   54.8    75    9.3   300    13.0   1012.9    0.00 
  62   16:40   0.24   54.1    77    9.9   303    12.7   1012.9    0.00 
  62   16:50   0.13   54.3    76   10.4   302    13.4   1012.9    0.00 
  62   17:00   0.09   53.5    78   10.1   301    13.3   1012.9    0.00 
  62   17:10   0.11   53.4    78   11.1   304    14.2   1012.9    0.00 
  62   17:20   0.07   53.1    79   12.4   300    15.9   1012.9    0.00 
  62   17:30   0.07   52.5    80   11.7   300    15.1   1012.9    0.00 
  62   17:40   0.07   52.2    81   11.2   303    14.0   1012.9    0.00 
  62   17:50   0.04   52.0    80   10.2   305    13.6   1012.5    0.00 
  62   18:00   0.02   51.5    79   10.1   306    13.9   1012.5    0.00 
  62   18:10   0.01   50.9    80    8.1   307    11.8   1012.5    0.00 
  62   18:20   0.00   50.7    81    9.7   305    12.4   1012.5    0.00 
  62   18:30   0.00   50.5    81    8.9   303    11.8   1012.5    0.00 
  62   18:40   0.00   50.0    83    8.0   305    11.3   1012.5    0.00 
  62   18:50   0.00   49.7    85    8.6   302    11.1   1012.5    0.00 
  62   19:00   0.00   49.9    85    7.5   303    10.5   1012.5    0.00 
  62   19:10   0.00   49.7    86    7.3   305     9.8   1012.5    0.00 
  62   19:20   0.01   49.7    86    6.9   302     9.1   1012.5    0.00 
  62   19:30   0.01   49.5    87    7.7   303     9.6   1012.5    0.00 
  62   19:40   0.01   49.2    87    7.0   308     8.8   1012.5    0.00 
  62   19:50   0.01   49.1    88    5.8   304     7.1   1012.5    0.00 
  62   20:00   0.01   49.0    88    5.3   304     6.4   1012.9    0.00 
  62   20:10   0.01   48.4    88    3.5   299     5.3   1012.9    0.00 
  62   20:20   0.01   47.4    88    1.4   334     3.3   1012.9    0.00 
  62   20:30   0.01   47.6    89    1.4   357     2.0   1012.9    0.00 
  62   20:40   0.01   47.5    89    1.4    44     2.2   1012.9    0.00 
  62   20:50   0.01   46.8    89    0.3   121     1.9   1013.2    0.00 
  62   21:00   0.01   46.1    89    0.9   125     1.8   1013.2    0.00 
  62   21:10   0.01   45.2    90    1.1   149     3.1   1012.9    0.00 
  62   21:20   0.01   45.9    91    3.2   156     3.9   1012.9    0.00 
  62   21:30   0.01   47.0    92    2.8   154     3.7   1012.9    0.00 
  62   21:40   0.01   46.2    90    1.2   122     2.6   1013.2    0.00 
  62   21:50   0.01   46.0    92    1.1   121     2.2   1013.2    0.00 
  62   22:00   0.01   46.3    92    1.9   124     2.8   1013.2    0.00 
  62   22:10   0.01   45.8    92    1.6   142     2.6   1013.5    0.00 
  62   22:20   0.01   45.3    92    1.4   143     2.3   1013.5    0.00 
  62   22:30   0.01   44.6    92    2.0   138     2.4   1013.5    0.00 
  62   22:40   0.01   44.6    92    2.3   146     2.9   1013.5    0.00 
  62   22:50   0.01   45.0    92    2.8   144     3.9   1013.5    0.00 
  62   23:00   0.01   44.6    92    3.0   139     3.9   1013.5    0.00 
  62   23:10   0.01   43.9    92    1.9   131     3.4   1013.5    0.00 
  62   23:20   0.01   44.2    93    2.0   109     3.4   1013.5    0.00 
  62   23:30   0.01   44.2    92    1.7   124     3.2   1013.5    0.00 
  62   23:40   0.01   44.1    92    2.3   140     3.6   1013.5    0.00 
  62   23:50   0.01   43.9    93    2.2   148     3.1   1013.5    0.00 
  63    0:00   0.01   43.9    93    1.7   139     2.9   1013.5    0.00 
  63    0:10   0.01   43.1    92    1.7   130     3.7   1013.9    0.00 
  63    0:20   0.01   43.8    93    2.0   141     3.1   1013.9    0.00 
  63    0:30   0.01   44.4    92    2.3   130     3.4   1013.9    0.00 
  63    0:40   0.01   44.2    93    2.2   134     3.0   1013.9    0.00 
  63    0:50   0.01   44.0    92    2.2   124     2.9   1013.9    0.00 
  63    1:00   0.01   44.4    92    1.9   130     3.2   1013.9    0.00 
  63    1:10   0.01   44.4    93    2.9   105     4.3   1013.9    0.00 
  63    1:20   0.01   44.3    92    2.4   128     3.7   1013.9    0.00 
  63    1:30   0.01   44.5    93    2.9   132     4.4   1013.9    0.00 
  63    1:40   0.01   44.8    93    3.0   125     4.4   1013.9    0.00 
  63    1:50   0.01   44.8    93    3.4   115     5.1   1013.9    0.00 
  63    2:00   0.01   44.9    92    3.3   112     4.7   1013.9    0.00 
  63    2:10   0.01   45.1    92    2.8   129     3.9   1013.9    0.00 
  63    2:20   0.01   45.0    92    3.1   128     5.2   1013.9    0.00 
  63    2:30   0.01   44.2    91    3.9   107     6.0   1013.9    0.00 
  63    2:40   0.01   44.1    91    3.7   130     5.2   1013.9    0.00 
  63    2:50   0.01   44.1    90    3.6   129     6.2   1013.9    0.00 
  63    3:00   0.01   44.4    90    4.1   131     6.4   1013.5    0.00 
  63    3:10   0.01   44.8    89    3.6   120     5.8   1013.5    0.00 
  63    3:20   0.01   43.2    88    4.6    90     6.4   1013.5    0.00 
  63    3:30   0.01   43.8    89    3.5   122     5.3   1013.5    0.00 
  63    3:40   0.01   44.6    90    4.8   144     5.8   1013.5    0.00 
  63    3:50   0.01   44.5    89    5.0   114     7.7   1013.5    0.00 
  63    4:00   0.01   44.3    90    3.5   131     4.9   1013.9    0.00 
  63    4:10   0.01   43.9    89    2.9   120     3.8   1013.9    0.00 
  63    4:20   0.01   43.3    90    4.0   153     5.6   1013.9    0.00 
  63    4:30   0.01   43.5    90    3.8   126     5.2   1014.2    0.00 
  63    4:40   0.01   44.2    90    4.2   112     5.9   1014.2    0.00 
  63    4:50   0.01   44.6    89    4.4   113     6.4   1014.2    0.00 
  63    5:00   0.01   43.7    88    4.7   100     6.4   1014.2    0.00 
  63    5:10   0.01   42.6    89    3.6    88     5.7   1014.6    0.00 
  63    5:20   0.01   42.9    90    3.1   133     4.7   1014.6    0.01 
  63    5:30   0.01   43.1    90    5.1   146     6.4   1014.6    0.00 
  63    5:40   0.01   42.9    89    4.5   135     5.6   1014.6    0.00 
  63    5:50   0.01   43.0    90    5.3   141     6.6   1014.6    0.00 
  63    6:00   0.01   43.2    89    4.3   120     7.2   1014.9    0.00 
  63    6:10   0.01   42.1    89    6.3    90     7.7   1014.9    0.00 
  63    6:20   0.01   42.6    90    5.0   102     7.2   1014.9    0.00 
  63    6:30   0.01   43.6    88    3.5   136     6.0   1015.2    0.00 
  63    6:40   0.01   43.2    88    4.2   138     6.0   1015.2    0.00 
  63    6:50   0.01   43.3    88    3.8   113     6.5   1015.2    0.00 
  63    7:00   0.03   43.8    88    3.8   131     5.3   1015.6    0.00 
  63    7:10   0.05   44.1    87    4.6   145     5.8   1015.6    0.00 
  63    7:20   0.07   44.7    86    3.0   124     4.1   1015.9    0.00 
  63    7:30   0.10   45.5    84    3.8   131     4.8   1015.9    0.00 
  63    7:40   0.13   46.2    82    4.5   136     5.6   1015.9    0.00 
  63    7:50   0.16   47.2    80    4.9   138     6.9   1015.9    0.00 
  63    8:00   0.19   48.0    79    3.5   117     6.1   1016.3    0.00 
  63    8:10   0.22   49.2    76    3.5   124     5.0   1016.3    0.00 
  63    8:20   0.25   50.6    72    3.8   120     6.1   1016.6    0.00 
  63    8:30   0.28   51.6    70    4.0   112     7.1   1016.9    0.00 
  63    8:40   0.30   51.9    69    3.7   116     6.1   1016.9    0.00 
  63    8:50   0.33   52.1    69    4.6   130     6.5   1017.3    0.00 
  63    9:00   0.36   52.0    70    5.1   136     6.4   1017.3    0.00 
  63    9:10   0.39   52.7    68    5.0   136     6.7   1017.3    0.00 
  63    9:20   0.42   53.9    67    4.2   128     7.1   1017.6    0.00 
  63    9:30   0.45   54.6    66    5.8   132     8.6   1017.6    0.00 
  63    9:40   0.47   55.2    65    4.6   138     7.6   1018.0    0.00 
  63    9:50   0.50   56.0    63    4.7   140     5.8   1018.0    0.00 
  63   10:00   0.52   56.0    61    4.0   144     5.3   1018.0    0.00 
  63   10:10   0.55   56.7    58    4.4   148     5.8   1018.3    0.00 
  63   10:20   0.57   56.9    58    5.4   148     6.5   1018.3    0.00 
  63   10:30   0.59   57.6    56    5.1   142     6.4   1018.6    0.00 
  63   10:40   0.61   58.0    56    5.9   149     7.5   1018.6    0.00 
  63   10:50   0.62   58.0    59    6.7   147     7.8   1018.6    0.00 
  63   11:00   0.64   58.2    60    6.3   144     8.3   1018.6    0.00 
  63   11:10   0.66   58.0    61    6.1   139     7.2   1018.6    0.00 
  63   11:20   0.67   58.6    59    5.8   138     7.2   1018.6    0.00 
  63   11:30   0.68   59.8    53    5.0   135     6.2   1019.0    0.00 
  63   11:40   0.69   61.0    50    5.8   185     8.3   1019.0    0.00 
  63   11:50   0.70   61.3    50    6.8   201     8.9   1019.0    0.00 
  63   12:00   0.70   61.2    56    7.5   204     9.6   1019.0    0.00 

Return to Bodega Marine Reserve graphs page.


Western Regional Climate Center,wrcc@dri.edu